Time;durP1;ratioP1;P1;durP2;ratioP2;P2;SDS_P1;SDS_P2;PMS_P1;PMS_P2;Temp;Humidity;BMP_temperature;BMP_pressure;BME280_temperature;BME280_humidity;BME280_pressure;Samples;Min_cycle;Max_cycle;Signal;HPM_P1;HPM_P2
2023/04/12 00:02:03;;;;;;;26.02;24.52;;;;;;;4.74;75.96;97787.13;5034070;28;20032;-77
2023/04/12 00:04:28;;;;;;;28.63;27.10;;;;;;;4.73;76.33;97774.84;5033930;28;20498;-76
2023/04/12 00:06:54;;;;;;;20.52;19.00;;;;;;;4.85;74.93;97768.56;5050783;28;20033;-76
2023/04/12 00:09:20;;;;;;;21.73;20.17;;;;;;;4.71;75.92;97771.56;5021046;28;20082;-76
2023/04/12 00:11:46;;;;;;;22.92;21.75;;;;;;;4.88;75.01;97768.13;5034000;28;20045;-77
2023/04/12 00:14:11;;;;;;;19.52;18.42;;;;;;;4.96;74.96;97764.38;5032203;28;20024;-77
2023/04/12 00:16:37;;;;;;;22.75;21.45;;;;;;;5.02;75.19;97768.03;5016508;28;20041;-74
2023/04/12 00:19:03;;;;;;;21.75;20.42;;;;;;;4.74;76.00;97755.13;5050264;28;20121;-75
2023/04/12 00:21:29;;;;;;;20.98;19.67;;;;;;;4.85;75.16;97744.53;5030412;28;20131;-74
2023/04/12 00:23:55;;;;;;;22.50;21.10;;;;;;;5.01;74.85;97745.84;5029481;28;20051;-76
2023/04/12 00:26:21;;;;;;;21.00;19.75;;;;;;;5.07;74.72;97738.81;5043796;28;20110;-76
2023/04/12 00:28:47;;;;;;;19.55;18.33;;;;;;;5.15;74.25;97733.19;5033670;28;20060;-74
2023/04/12 00:31:12;;;;;;;19.63;18.58;;;;;;;5.05;74.99;97731.03;5017260;28;20223;-75
2023/04/12 00:33:37;;;;;;;17.40;16.20;;;;;;;5.18;73.79;97719.41;5049837;28;20024;-75
2023/04/12 00:36:03;;;;;;;18.40;17.10;;;;;;;5.09;74.61;97721.53;5050291;28;20097;-74
2023/04/12 00:38:28;;;;;;;21.88;20.63;;;;;;;5.03;75.75;97717.09;5033727;28;20029;-73
2023/04/12 00:40:55;;;;;;;22.30;20.75;;;;;;;5.14;74.42;97697.69;5042730;28;20291;-72
2023/04/12 00:43:20;;;;;;;22.73;21.42;;;;;;;5.10;75.58;97719.69;5049703;28;20044;-72
2023/04/12 00:45:46;;;;;;;27.45;25.60;;;;;;;5.00;76.12;97711.38;5046565;28;20562;-72
2023/04/12 00:48:11;;;;;;;25.50;24.35;;;;;;;5.06;75.98;97703.31;5019755;28;20092;-72
2023/04/12 00:50:43;;;;;;;28.63;27.23;;;;;;;4.95;76.21;97697.91;5033271;28;20040;-72
2023/04/12 00:53:12;;;;;;;30.75;29.00;;;;;;;4.93;76.64;97695.44;5033783;28;20025;-72
2023/04/12 00:55:40;;;;;;;29.27;27.67;;;;;;;4.67;77.95;97706.34;5033730;28;20029;-72
2023/04/12 00:58:06;;;;;;;31.17;29.55;;;;;;;4.91;77.12;97708.19;5049991;28;20048;-72
2023/04/12 01:00:33;;;;;;;29.40;27.88;;;;;;;5.08;75.89;97690.56;5049814;28;20025;-72
2023/04/12 01:03:01;;;;;;;30.30;28.67;;;;;;;5.02;76.17;97680.75;5037163;28;20067;-74
2023/04/12 01:05:27;;;;;;;27.27;25.75;;;;;;;5.11;75.91;97684.75;5039342;28;20029;-73
2023/04/12 01:07:54;;;;;;;22.88;21.67;;;;;;;5.30;75.04;97681.06;5026093;28;20483;-74
2023/04/12 01:10:29;;;;;;;20.98;19.83;;;;;;;5.10;75.23;97675.16;5054059;28;20037;-74
2023/04/12 01:13:07;;;;;;;24.52;23.00;;;;;;;5.06;76.06;97678.47;5037324;28;20090;-74
2023/04/12 01:15:36;;;;;;;28.35;26.85;;;;;;;5.13;76.70;97663.22;5034185;28;20032;-74
2023/04/12 01:18:12;;;;;;;29.02;27.55;;;;;;;5.07;76.47;97664.09;5015250;28;20018;-75
2023/04/12 01:20:53;;;;;;;29.27;27.67;;;;;;;5.06;76.43;97662.47;5054085;28;20398;-75
2023/04/12 01:23:38;;;;;;;30.48;28.80;;;;;;;4.92;77.05;97659.13;5018153;28;20037;-75
2023/04/12 01:26:41;;;;;;;29.80;28.10;;;;;;;4.73;77.69;97657.47;5037783;28;20033;-75
2023/04/12 01:29:18;;;;;;;28.50;26.92;;;;;;;4.84;77.54;97654.91;5037027;28;20415;-75
2023/04/12 01:31:51;;;;;;;32.10;30.23;;;;;;;4.94;76.72;97643.72;5053713;28;20033;-74
2023/04/12 01:34:16;;;;;;;31.67;30.08;;;;;;;5.00;77.36;97642.81;5036994;28;20406;-74
2023/04/12 01:36:46;;;;;;;27.75;26.13;;;;;;;5.04;75.96;97641.31;5021369;28;20021;-74
2023/04/12 01:39:11;;;;;;;21.40;20.15;;;;;;;5.10;75.87;97636.97;5037259;28;20079;-74
2023/04/12 01:41:44;;;;;;;29.35;27.80;;;;;;;5.16;76.31;97634.22;5053642;28;20111;-74
2023/04/12 01:44:16;;;;;;;34.10;32.33;;;;;;;5.13;77.22;97626.66;5020634;28;20033;-74
2023/04/12 01:46:43;;;;;;;37.70;35.70;;;;;;;5.07;77.83;97627.53;5035799;28;20607;-74
2023/04/12 01:49:10;;;;;;;33.17;31.45;;;;;;;5.11;77.02;97615.38;5053751;28;20135;-74
2023/04/12 01:51:50;;;;;;;33.22;31.48;;;;;;;5.20;77.43;97621.25;5036855;28;20079;-74
2023/04/12 01:54:25;;;;;;;31.52;30.08;;;;;;;5.03;76.72;97621.03;5036724;28;20039;-75
2023/04/12 01:57:01;;;;;;;34.17;32.42;;;;;;;5.14;76.81;97617.59;5053501;28;20031;-74
2023/04/12 01:59:43;;;;;;;37.08;35.28;;;;;;;5.20;77.16;97615.91;5020281;28;20136;-75
2023/04/12 02:02:09;;;;;;;34.38;32.67;;;;;;;5.25;76.47;97608.84;5020105;28;20136;-75
2023/04/12 02:04:35;;;;;;;23.42;22.17;;;;;;;5.25;74.98;97611.50;5009549;28;20050;-76
2023/04/12 02:07:01;;;;;;;33.85;32.00;;;;;;;5.21;77.36;97602.31;5025012;28;20067;-76
2023/04/12 02:09:26;;;;;;;28.83;27.23;;;;;;;5.21;76.21;97586.31;5020071;28;20036;-76
2023/04/12 02:11:52;;;;;;;28.50;27.08;;;;;;;5.23;76.09;97594.09;5036446;28;20029;-76
2023/04/12 02:14:18;;;;;;;22.40;20.70;;;;;;;5.09;75.18;97577.44;5036051;28;20466;-75
2023/04/12 02:16:44;;;;;;;19.00;17.80;;;;;;;5.24;73.88;97580.53;5036439;28;20044;-75
2023/04/12 02:19:10;;;;;;;27.52;25.95;;;;;;;4.90;78.13;97589.19;5054153;28;20068;-75
2023/04/12 02:21:43;;;;;;;36.28;34.45;;;;;;;4.77;78.70;97589.31;5032736;28;20491;-75
2023/04/12 02:24:10;;;;;;;38.92;37.03;;;;;;;4.79;78.38;97595.25;5024398;28;20029;-74
2023/04/12 02:26:36;;;;;;;38.92;36.95;;;;;;;4.85;78.10;97597.81;5036218;28;20029;-74
2023/04/12 02:29:02;;;;;;;40.47;38.38;;;;;;;5.04;77.64;97584.50;5019585;28;20029;-74
2023/04/12 02:31:29;;;;;;;36.78;34.92;;;;;;;5.23;76.50;97578.06;5035914;28;20029;-74
2023/04/12 02:33:56;;;;;;;38.60;36.55;;;;;;;5.14;77.55;97579.41;5035674;28;20037;-74
2023/04/12 02:36:21;;;;;;;42.97;40.88;;;;;;;4.95;78.16;97581.31;5035856;28;20118;-74
2023/04/12 02:38:49;;;;;;;40.33;38.08;;;;;;;4.99;78.21;97571.84;5052389;28;20086;-74
2023/04/12 02:41:16;;;;;;;38.92;36.92;;;;;;;5.07;77.91;97568.03;5019804;28;20091;-74
2023/04/12 02:43:42;;;;;;;36.75;34.63;;;;;;;5.25;77.30;97570.69;5035390;28;20025;-74
2023/04/12 02:46:07;;;;;;;41.53;39.53;;;;;;;5.25;77.35;97560.78;5052176;28;20029;-74
2023/04/12 02:48:40;;;;;;;41.25;39.13;;;;;;;5.32;77.21;97561.50;5036707;28;20048;-74
2023/04/12 02:51:06;;;;;;;33.83;32.22;;;;;;;5.17;77.27;97555.78;5035336;28;20099;-74
2023/04/12 02:53:33;;;;;;;33.45;31.65;;;;;;;5.38;76.45;97544.59;5035450;28;20021;-74
2023/04/12 02:56:24;;;;;;;26.70;25.10;;;;;;;5.48;75.75;97544.84;5051240;28;20040;-73
2023/04/12 02:58:57;;;;;;;25.70;24.20;;;;;;;5.52;76.07;97546.03;5036401;28;20033;-73
2023/04/12 03:01:46;;;;;;;19.10;17.90;;;;;;;5.62;75.09;97536.66;5047503;28;20170;-73
2023/04/12 03:04:21;;;;;;;18.98;17.60;;;;;;;5.70;74.97;97530.97;5036201;28;20057;-74
2023/04/12 03:06:52;;;;;;;19.88;18.75;;;;;;;5.71;75.39;97524.59;5036296;28;20033;-73
2023/04/12 03:09:22;;;;;;;19.10;17.80;;;;;;;5.79;74.66;97518.94;5035949;28;20044;-73
2023/04/12 03:11:48;;;;;;;18.95;17.50;;;;;;;5.82;74.34;97518.44;5051666;28;20039;-74
2023/04/12 03:14:13;;;;;;;19.50;18.00;;;;;;;5.85;74.54;97507.34;5034867;28;20029;-76
2023/04/12 03:16:40;;;;;;;19.25;18.00;;;;;;;5.85;75.29;97513.50;5005677;28;20565;-76
2023/04/12 03:19:10;;;;;;;18.08;16.88;;;;;;;5.94;74.16;97517.47;5007309;28;20128;-76
2023/04/12 03:21:36;;;;;;;17.33;16.10;;;;;;;5.88;73.87;97520.25;5031516;28;20124;-76
2023/04/12 03:24:03;;;;;;;13.05;12.15;;;;;;;6.01;73.55;97522.69;5021597;28;20020;-75
2023/04/12 03:26:29;;;;;;;14.02;13.02;;;;;;;6.09;72.85;97509.00;5035046;28;20036;-75
2023/04/12 03:29:03;;;;;;;11.65;10.68;;;;;;;6.06;72.49;97510.25;5019178;28;20036;-75
2023/04/12 03:31:31;;;;;;;11.27;10.38;;;;;;;6.10;72.26;97505.25;5035791;28;20037;-75
2023/04/12 03:34:02;;;;;;;11.50;10.40;;;;;;;6.12;72.40;97503.97;5035163;28;20107;-75
2023/04/12 03:36:29;;;;;;;10.15;9.35;;;;;;;6.19;71.96;97498.50;5034813;28;20111;-75
2023/04/12 03:39:02;;;;;;;8.43;7.60;;;;;;;6.17;71.45;97511.28;5020320;28;20029;-74
2023/04/12 03:41:31;;;;;;;8.20;7.38;;;;;;;6.25;71.92;97497.59;5035159;28;20082;-75
2023/04/12 03:43:58;;;;;;;8.68;7.57;;;;;;;6.26;70.99;97504.53;5050900;28;20452;-75
2023/04/12 03:46:23;;;;;;;8.20;7.43;;;;;;;6.17;72.02;97505.94;5034469;28;20050;-75
2023/04/12 03:48:55;;;;;;;8.98;8.18;;;;;;;6.26;72.36;97493.84;5019688;28;20044;-75
2023/04/12 03:51:25;;;;;;;9.80;9.15;;;;;;;6.34;71.77;97498.84;5034446;28;20033;-75
2023/04/12 03:53:53;;;;;;;8.55;7.85;;;;;;;6.22;72.15;97500.72;5034122;28;20043;-75
2023/04/12 03:56:19;;;;;;;7.85;7.25;;;;;;;6.23;71.46;97499.69;5028357;28;20475;-75
2023/04/12 03:58:48;;;;;;;6.82;6.22;;;;;;;6.19;70.76;97483.28;5028501;28;20032;-75
2023/04/12 04:01:16;;;;;;;8.77;7.97;;;;;;;6.21;71.68;97483.03;5034784;28;20478;-75
2023/04/12 04:03:43;;;;;;;9.70;7.03;;;;;;;6.31;71.00;97474.44;5034090;28;20036;-75
2023/04/12 04:06:18;;;;;;;10.10;6.32;;;;;;;6.34;70.78;97471.28;5035375;28;20112;-75
2023/04/12 04:08:44;;;;;;;9.23;7.40;;;;;;;6.18;71.17;97464.81;5050779;28;20598;-75
2023/04/12 04:11:11;;;;;;;10.48;6.70;;;;;;;6.31;71.18;97467.22;5034308;28;20505;-74
2023/04/12 04:13:39;;;;;;;8.23;7.30;;;;;;;6.23;70.93;97455.03;5031866;28;20037;-75
2023/04/12 04:16:10;;;;;;;7.93;7.20;;;;;;;6.21;72.06;97456.31;5039859;28;20025;-74
2023/04/12 04:18:38;;;;;;;9.00;7.22;;;;;;;6.29;71.60;97458.63;5034554;28;20123;-74
2023/04/12 04:21:06;;;;;;;11.65;8.73;;;;;;;6.33;71.83;97462.44;5034176;28;20024;-74
2023/04/12 04:23:37;;;;;;;10.02;8.43;;;;;;;6.24;71.59;97458.53;5017992;28;20089;-74
2023/04/12 04:26:10;;;;;;;9.02;8.13;;;;;;;6.24;71.74;97453.16;5050570;28;20077;-74
2023/04/12 04:28:46;;;;;;;9.35;8.43;;;;;;;6.19;72.47;97461.06;5050269;28;20040;-73
2023/04/12 04:31:16;;;;;;;12.02;8.15;;;;;;;6.23;71.47;97457.69;5050473;28;20032;-74
2023/04/12 04:33:43;;;;;;;8.57;7.72;;;;;;;6.30;71.11;97452.25;5033852;28;20033;-73
2023/04/12 04:36:09;;;;;;;10.45;9.35;;;;;;;6.19;71.88;97453.06;5019605;28;20506;-73
2023/04/12 04:38:35;;;;;;;10.90;9.13;;;;;;;6.17;72.00;97452.47;5021040;28;20043;-74
2023/04/12 04:41:21;;;;;;;11.00;9.82;;;;;;;6.23;72.29;97454.25;5007149;28;20579;-73
2023/04/12 04:43:55;;;;;;;12.52;11.25;;;;;;;6.14;72.28;97463.63;5043495;28;20025;-73
2023/04/12 04:46:23;;;;;;;9.85;9.07;;;;;;;6.25;71.69;97460.16;5031218;28;20094;-73
2023/04/12 04:48:50;;;;;;;11.93;10.93;;;;;;;6.17;71.98;97457.81;5033698;28;20025;-73
2023/04/12 04:51:17;;;;;;;30.75;26.55;;;;;;;6.09;72.42;97458.19;5049931;28;20033;-73
2023/04/12 04:53:43;;;;;;;24.25;21.70;;;;;;;6.11;72.62;97458.78;5033376;28;20039;-74
2023/04/12 04:56:11;;;;;;;17.40;14.00;;;;;;;6.13;72.62;97472.72;5049066;28;20045;-75
2023/04/12 04:58:37;;;;;;;17.55;15.80;;;;;;;6.15;72.59;97457.25;5033445;28;20032;-75
2023/04/12 05:01:04;;;;;;;12.32;10.88;;;;;;;6.17;72.20;97455.97;5028157;28;20063;-74
2023/04/12 05:03:32;;;;;;;12.30;11.23;;;;;;;6.14;72.47;97447.59;5025828;28;20039;-74
2023/04/12 05:05:59;;;;;;;11.88;10.88;;;;;;;6.16;72.80;97449.00;5036771;28;20040;-75
2023/04/12 05:08:25;;;;;;;14.35;13.20;;;;;;;6.18;72.91;97443.44;5017028;28;20029;-75
2023/04/12 05:10:51;;;;;;;13.13;12.00;;;;;;;6.22;72.76;97436.56;5019906;28;20043;-75
2023/04/12 05:13:18;;;;;;;15.05;13.82;;;;;;;6.27;73.06;97436.66;5004485;28;20055;-73
2023/04/12 05:15:44;;;;;;;12.77;11.63;;;;;;;6.38;72.29;97433.16;5032814;28;20040;-74
2023/04/12 05:18:09;;;;;;;13.40;12.30;;;;;;;6.38;72.49;97427.81;5021228;28;20431;-74
2023/04/12 05:20:37;;;;;;;16.38;14.80;;;;;;;6.46;73.17;97429.28;5026864;28;20033;-73
2023/04/12 05:23:02;;;;;;;13.43;12.32;;;;;;;6.41;73.38;97415.81;5010044;28;20022;-73
2023/04/12 05:25:28;;;;;;;15.93;14.63;;;;;;;6.51;72.31;97416.03;5025902;28;20037;-73
2023/04/12 05:28:01;;;;;;;12.52;11.38;;;;;;;6.46;72.29;97418.59;5027610;28;20044;-73
2023/04/12 05:30:26;;;;;;;13.00;11.65;;;;;;;6.61;71.41;97425.06;5036262;28;20079;-73
2023/04/12 05:32:52;;;;;;;13.20;11.90;;;;;;;6.65;71.90;97418.16;5020391;28;20032;-75
2023/04/12 05:35:18;;;;;;;14.60;13.23;;;;;;;6.65;72.60;97418.16;5010710;28;20069;-74
2023/04/12 05:37:45;;;;;;;15.75;14.45;;;;;;;6.73;72.14;97417.81;5026578;28;20032;-73
2023/04/12 05:40:12;;;;;;;18.88;17.38;;;;;;;6.68;72.79;97407.00;5036490;28;20120;-73
2023/04/12 05:42:38;;;;;;;16.13;12.27;;;;;;;6.75;72.13;97396.97;5020038;28;20645;-73
2023/04/12 05:45:04;;;;;;;13.77;12.43;;;;;;;6.91;71.07;97395.38;5043206;28;20080;-74
2023/04/12 05:47:31;;;;;;;13.38;12.23;;;;;;;6.92;71.77;97397.81;5012404;28;20485;-75
2023/04/12 05:49:56;;;;;;;12.32;10.85;;;;;;;7.03;71.64;97397.97;5023630;28;20037;-75
2023/04/12 05:52:22;;;;;;;13.23;10.23;;;;;;;7.09;71.23;97397.03;5023958;28;20029;-74
2023/04/12 05:54:49;;;;;;;15.43;11.90;;;;;;;7.23;70.89;97398.34;5039637;28;20036;-74
2023/04/12 05:57:16;;;;;;;12.65;11.40;;;;;;;7.29;70.97;97386.66;5040447;28;20021;-75
2023/04/12 05:59:42;;;;;;;17.25;15.50;;;;;;;7.33;71.12;97382.44;5010539;28;20030;-75
2023/04/12 06:02:09;;;;;;;25.95;19.77;;;;;;;7.44;71.31;97376.19;5013608;28;20127;-75
2023/04/12 06:04:34;;;;;;;18.30;16.58;;;;;;;7.57;71.42;97373.16;5036356;28;20037;-75
2023/04/12 06:07:00;;;;;;;15.10;13.60;;;;;;;7.53;70.99;97361.34;5023112;28;20048;-76
2023/04/12 06:09:26;;;;;;;14.18;13.15;;;;;;;7.64;70.89;97357.75;4993945;28;20060;-75
2023/04/12 06:11:52;;;;;;;15.38;14.27;;;;;;;7.59;71.90;97354.97;5031629;28;20072;-75
2023/04/12 06:14:17;;;;;;;16.75;15.35;;;;;;;7.52;72.44;97354.34;5015614;28;20034;-76
2023/04/12 06:16:44;;;;;;;15.52;14.27;;;;;;;7.54;72.90;97354.91;5030072;28;20021;-75
2023/04/12 06:19:10;;;;;;;17.67;16.38;;;;;;;7.61;73.48;97348.31;5024248;28;20043;-76
2023/04/12 06:21:35;;;;;;;18.42;16.92;;;;;;;7.58;73.25;97343.44;5040415;28;20379;-75
2023/04/12 06:24:00;;;;;;;19.08;17.77;;;;;;;7.64;72.82;97347.03;5025431;28;20033;-75
2023/04/12 06:26:26;;;;;;;20.40;19.05;;;;;;;7.60;73.30;97329.81;5007696;28;20120;-75
2023/04/12 06:28:52;;;;;;;21.50;20.10;;;;;;;7.70;73.76;97335.34;5023283;28;20166;-76
2023/04/12 06:31:18;;;;;;;19.40;18.02;;;;;;;7.64;73.35;97330.94;5022620;28;20098;-75
2023/04/12 06:33:44;;;;;;;24.15;22.67;;;;;;;7.50;74.63;97318.94;5051769;28;20482;-76
2023/04/12 06:36:10;;;;;;;23.13;21.63;;;;;;;7.59;74.50;97322.81;5035195;28;20031;-75
2023/04/12 06:38:36;;;;;;;23.25;21.65;;;;;;;7.69;73.40;97328.34;5052544;28;20036;-75
2023/04/12 06:41:01;;;;;;;23.80;22.40;;;;;;;7.62;74.44;97327.69;5052509;28;20049;-75
2023/04/12 06:43:26;;;;;;;21.67;20.42;;;;;;;7.61;74.49;97326.06;5052246;28;20076;-76
2023/04/12 06:45:52;;;;;;;23.27;21.88;;;;;;;7.73;74.41;97323.28;5035688;28;20044;-77
2023/04/12 06:48:17;;;;;;;23.33;21.90;;;;;;;7.75;74.14;97321.19;5035531;28;20033;-75
2023/04/12 06:50:46;;;;;;;23.33;21.83;;;;;;;7.71;74.80;97315.50;5052057;28;20499;-75
2023/04/12 06:53:14;;;;;;;25.90;24.05;;;;;;;7.65;74.65;97324.53;5035259;28;20475;-75
2023/04/12 06:55:39;;;;;;;31.73;29.67;;;;;;;7.74;75.13;97296.25;5052105;28;20036;-75
2023/04/12 06:58:05;;;;;;;30.88;29.10;;;;;;;7.56;75.10;97307.28;5027676;28;20112;-75
2023/04/12 07:00:30;;;;;;;28.30;26.42;;;;;;;7.56;75.37;97301.91;5032090;28;20030;-75
2023/04/12 07:02:56;;;;;;;29.88;28.25;;;;;;;7.63;74.97;97291.81;5035191;28;20035;-76
2023/04/12 07:05:21;;;;;;;33.55;31.35;;;;;;;7.69;75.20;97280.09;5035227;28;20501;-75
2023/04/12 07:07:47;;;;;;;32.28;30.40;;;;;;;7.69;76.32;97269.38;5051877;28;20033;-75
2023/04/12 07:10:12;;;;;;;40.08;37.88;;;;;;;7.69;76.76;97280.09;5020293;28;20028;-75
2023/04/12 07:12:37;;;;;;;40.97;38.95;;;;;;;7.66;76.81;97269.88;5041643;28;20292;-75
2023/04/12 07:15:03;;;;;;;48.65;45.85;;;;;;;7.43;77.82;97275.44;5051318;28;20103;-75
2023/04/12 07:17:29;;;;;;;51.67;48.78;;;;;;;7.63;78.56;97275.75;5031860;28;20029;-76
2023/04/12 07:19:54;;;;;;;55.80;52.88;;;;;;;7.47;80.19;97281.94;5031748;28;20021;-75
2023/04/12 07:22:20;;;;;;;56.90;54.00;;;;;;;7.51;79.14;97267.00;5042461;28;20403;-75
2023/04/12 07:24:45;;;;;;;57.72;54.60;;;;;;;7.62;78.93;97268.75;5045244;28;20056;-74
2023/04/12 07:27:11;;;;;;;55.05;52.45;;;;;;;7.53;79.65;97254.16;5050017;28;20033;-76
2023/04/12 07:29:36;;;;;;;60.75;57.67;;;;;;;7.52;81.30;97263.25;5016504;28;20029;-75
2023/04/12 07:32:02;;;;;;;63.47;60.13;;;;;;;7.45;81.34;97273.34;5045848;28;20069;-74
2023/04/12 07:34:27;;;;;;;64.65;61.15;;;;;;;7.58;81.54;97262.28;5028289;28;20067;-76
2023/04/12 07:36:52;;;;;;;63.50;60.20;;;;;;;7.40;81.42;97249.16;5021641;28;20132;-75
2023/04/12 07:39:18;;;;;;;63.22;59.92;;;;;;;7.46;80.86;97256.22;5038664;28;20099;-76
2023/04/12 07:41:45;;;;;;;64.18;60.83;;;;;;;7.48;80.93;97252.25;5046029;28;20037;-76
2023/04/12 07:44:11;;;;;;;62.90;59.83;;;;;;;7.49;81.28;97242.34;5011864;28;20482;-74
2023/04/12 07:46:37;;;;;;;62.60;59.50;;;;;;;7.76;80.79;97234.34;5038142;28;20107;-74
2023/04/12 07:49:03;;;;;;;58.25;55.38;;;;;;;7.70;80.14;97233.50;5021482;28;20021;-75
2023/04/12 07:51:28;;;;;;;58.67;55.75;;;;;;;7.55;80.33;97210.00;5024892;28;20447;-75
2023/04/12 07:53:53;;;;;;;62.03;59.03;;;;;;;7.44;81.79;97216.28;5014360;28;20064;-73
2023/04/12 07:56:19;;;;;;;59.05;56.17;;;;;;;7.65;80.95;97215.47;5044919;28;20037;-75
2023/04/12 07:58:44;;;;;;;58.22;55.50;;;;;;;7.63;81.05;97219.47;5014772;28;20026;-75
2023/04/12 08:01:11;;;;;;;55.67;53.08;;;;;;;7.54;80.58;97208.38;5027049;28;20439;-74
2023/04/12 08:03:36;;;;;;;56.15;53.58;;;;;;;7.60;80.84;97211.94;5023144;28;20021;-74
2023/04/12 08:06:02;;;;;;;59.03;56.22;;;;;;;7.89;80.27;97207.97;5050068;28;20079;-74
2023/04/12 08:08:27;;;;;;;64.03;61.05;;;;;;;7.79;81.46;97199.84;5019202;28;20565;-76
2023/04/12 08:10:52;;;;;;;57.80;54.83;;;;;;;7.78;80.70;97200.88;5026190;28;20069;-76
2023/04/12 08:13:19;;;;;;;62.72;59.83;;;;;;;7.90;81.53;97193.53;5014239;28;20034;-76
2023/04/12 08:15:46;;;;;;;60.58;57.67;;;;;;;7.87;80.53;97185.16;5014003;28;20064;-76
2023/04/12 08:18:11;;;;;;;61.42;58.47;;;;;;;7.87;81.65;97185.97;5011489;28;20028;-75
2023/04/12 08:20:39;;;;;;;60.22;57.35;;;;;;;7.96;80.87;97189.03;5047210;28;20399;-76
2023/04/12 08:23:05;;;;;;;61.45;58.65;;;;;;;7.82;80.99;97183.22;5031480;28;20021;-75
2023/04/12 08:25:30;;;;;;;63.33;60.33;;;;;;;7.82;80.64;97183.22;5050315;28;20048;-75
2023/04/12 08:27:55;;;;;;;63.83;60.72;;;;;;;7.67;82.96;97185.75;5038091;28;20669;-75
2023/04/12 08:30:25;;;;;;;64.07;60.97;;;;;;;7.96;81.52;97184.47;5043766;28;20108;-76
2023/04/12 08:32:51;;;;;;;65.30;62.13;;;;;;;7.84;81.49;97180.31;5041856;28;20098;-76
2023/04/12 08:35:16;;;;;;;68.30;65.00;;;;;;;7.89;82.04;97178.50;5014398;28;20043;-75
2023/04/12 08:37:42;;;;;;;66.70;63.35;;;;;;;7.86;82.18;97179.00;5030027;28;20044;-75
2023/04/12 08:40:08;;;;;;;66.10;62.90;;;;;;;7.72;82.14;97166.25;5020405;28;20032;-75
2023/04/12 08:42:35;;;;;;;64.88;61.70;;;;;;;7.94;82.38;97180.41;5021618;28;20434;-75
2023/04/12 08:45:05;;;;;;;62.92;60.03;;;;;;;8.18;81.20;97174.50;5043831;28;20029;-76
2023/04/12 08:47:32;;;;;;;64.25;61.25;;;;;;;8.26;81.17;97174.06;5042330;28;20060;-75
2023/04/12 08:49:59;;;;;;;68.45;65.20;;;;;;;8.21;82.40;97178.56;4999775;28;20018;-76
2023/04/12 08:52:25;;;;;;;69.93;66.63;;;;;;;8.11;82.71;97165.84;5026851;28;20119;-75
2023/04/12 08:54:51;;;;;;;68.40;65.28;;;;;;;8.21;82.07;97168.63;5038379;28;20117;-75
2023/04/12 08:57:17;;;;;;;68.13;64.82;;;;;;;8.41;82.10;97159.16;5036967;28;20046;-76
2023/04/12 08:59:42;;;;;;;66.75;63.55;;;;;;;8.14;82.20;97160.00;5037028;28;20509;-76
2023/04/12 09:02:08;;;;;;;65.22;62.15;;;;;;;8.19;82.08;97151.19;5038258;28;20064;-76
2023/04/12 09:04:33;;;;;;;64.55;61.38;;;;;;;7.92;82.85;97140.47;5003845;28;20082;-77
2023/04/12 09:06:59;;;;;;;61.30;58.40;;;;;;;7.89;83.11;97132.13;5037410;28;20044;-74
2023/04/12 09:09:43;;;;;;;60.67;57.65;;;;;;;7.88;82.67;97133.19;5043533;28;20387;-75
2023/04/12 09:12:09;;;;;;;61.88;58.88;;;;;;;7.83;83.55;97136.63;5028721;28;20124;-75
2023/04/12 09:14:34;;;;;;;63.95;60.92;;;;;;;7.84;84.36;97127.50;5033317;28;20021;-76
2023/04/12 09:17:00;;;;;;;64.20;61.15;;;;;;;8.05;83.66;97113.22;5036702;28;20056;-75
2023/04/12 09:19:33;;;;;;;61.63;58.42;;;;;;;8.26;83.02;97104.31;5024255;28;20033;-75
2023/04/12 09:21:58;;;;;;;63.53;60.63;;;;;;;8.29;82.42;97093.09;5024091;28;20156;-76
2023/04/12 09:24:24;;;;;;;62.67;59.72;;;;;;;8.16;83.70;97093.50;5034958;28;20029;-76
2023/04/12 09:27:03;;;;;;;65.35;62.35;;;;;;;8.25;82.43;97081.25;5040558;28;20064;-75
2023/04/12 09:29:29;;;;;;;63.67;60.60;;;;;;;8.31;83.27;97088.28;5025451;28;20510;-75
2023/04/12 09:32:06;;;;;;;66.03;63.03;;;;;;;8.25;83.33;97075.88;5047196;28;20033;-75
2023/04/12 09:34:34;;;;;;;66.80;63.80;;;;;;;8.27;82.42;97063.03;5030608;28;20036;-76
2023/04/12 09:37:11;;;;;;;63.08;60.10;;;;;;;8.45;82.42;97063.72;5041061;28;20025;-75
2023/04/12 09:39:36;;;;;;;66.22;63.22;;;;;;;8.59;81.99;97044.19;5034536;28;20025;-76
2023/04/12 09:42:06;;;;;;;67.43;64.50;;;;;;;8.54;81.75;97051.41;5026496;28;20086;-75
2023/04/12 09:44:33;;;;;;;63.22;60.33;;;;;;;8.90;81.53;97045.97;5023746;28;20069;-75
2023/04/12 09:47:00;;;;;;;56.92;54.42;;;;;;;9.01;80.07;97044.13;5027160;28;20061;-76
2023/04/12 09:49:42;;;;;;;55.35;52.85;;;;;;;9.11;80.77;97038.00;5030517;28;20041;-76
2023/04/12 09:52:13;;;;;;;60.90;58.28;;;;;;;9.18;82.54;97038.56;5037631;28;20033;-75
2023/04/12 09:54:43;;;;;;;64.47;61.67;;;;;;;8.88;82.36;97039.25;5030134;28;20072;-75
2023/04/12 09:57:09;;;;;;;61.28;58.58;;;;;;;8.84;81.75;97030.13;5036472;28;20645;-75
2023/04/12 09:59:38;;;;;;;64.00;61.20;;;;;;;8.90;82.21;97034.41;5007467;28;20029;-75
2023/04/12 10:02:07;;;;;;;60.85;58.25;;;;;;;8.62;81.41;97032.13;5035993;28;20114;-75
2023/04/12 10:04:34;;;;;;;61.33;58.65;;;;;;;8.53;82.21;97023.78;5008074;28;20036;-75
2023/04/12 10:07:00;;;;;;;63.40;60.70;;;;;;;8.39;81.90;97011.06;5052039;28;20489;-76
2023/04/12 10:09:27;;;;;;;59.53;56.92;;;;;;;8.48;81.71;97018.38;5008040;28;20123;-75
2023/04/12 10:11:52;;;;;;;63.25;60.50;;;;;;;8.52;82.11;97010.63;5039612;28;20025;-75
2023/04/12 10:14:20;;;;;;;61.97;59.28;;;;;;;8.50;82.63;97007.38;5045091;28;20068;-75
2023/04/12 10:16:46;;;;;;;64.53;61.80;;;;;;;8.35;83.66;96998.16;5030643;28;20025;-75
2023/04/12 10:19:12;;;;;;;62.60;59.90;;;;;;;8.76;82.95;97001.06;5012635;28;20032;-77
2023/04/12 10:21:37;;;;;;;61.97;59.28;;;;;;;8.84;82.02;97003.25;5027247;28;20515;-76
2023/04/12 10:24:05;;;;;;;63.03;60.13;;;;;;;8.74;82.32;96987.09;5045525;28;20033;-74
2023/04/12 10:26:31;;;;;;;65.07;62.28;;;;;;;9.03;82.41;96993.69;5046636;28;20471;-75
2023/04/12 10:29:22;;;;;;;60.30;57.60;;;;;;;8.99;81.83;96990.69;5023720;28;20043;-75
2023/04/12 10:31:48;;;;;;;61.10;58.50;;;;;;;9.04;82.41;96981.84;5039311;28;20091;-76
2023/04/12 10:34:15;;;;;;;64.97;62.17;;;;;;;9.30;82.50;96980.84;5023354;28;20522;-75
2023/04/12 10:37:00;;;;;;;61.53;58.92;;;;;;;9.40;82.18;96975.50;5047362;28;20040;-75
2023/04/12 10:39:37;;;;;;;63.03;60.22;;;;;;;9.55;81.20;96972.81;5029392;28;20095;-76
2023/04/12 10:42:23;;;;;;;62.58;59.88;;;;;;;9.18;81.39;96961.47;5024429;28;20693;-75
2023/04/12 10:44:50;;;;;;;64.03;61.33;;;;;;;9.28;81.98;96956.13;5039080;28;20055;-75
2023/04/12 10:48:00;;;;;;;63.42;60.80;;;;;;;9.47;82.00;96959.91;5041241;28;20276;-75
2023/04/12 10:50:30;;;;;;;58.63;56.08;;;;;;;9.17;81.47;96954.47;5012693;28;20037;-75
2023/04/12 10:53:14;;;;;;;60.75;58.17;;;;;;;9.58;80.39;96953.47;5033840;28;20037;-76
2023/04/12 10:55:41;;;;;;;60.95;58.38;;;;;;;9.97;80.04;96942.16;5039258;28;20057;-75
2023/04/12 10:58:07;;;;;;;60.60;57.92;;;;;;;9.84;80.55;96937.34;5045078;28;20028;-76
2023/04/12 11:00:54;;;;;;;59.63;57.13;;;;;;;9.70;81.38;96940.56;5029772;28;20033;-75
2023/04/12 11:03:20;;;;;;;59.83;57.38;;;;;;;9.45;80.89;96934.38;5041808;28;20087;-76
2023/04/12 11:06:04;;;;;;;61.38;58.70;;;;;;;9.23;81.48;96931.94;5012797;28;20026;-75
2023/04/12 11:08:48;;;;;;;60.65;58.15;;;;;;;9.13;81.97;96910.44;5045826;28;20502;-75
2023/04/12 11:11:27;;;;;;;63.63;60.92;;;;;;;9.42;82.84;96919.59;5003051;28;20029;-76
2023/04/12 11:13:54;;;;;;;62.40;59.70;;;;;;;9.71;80.83;96923.34;5049143;28;20087;-75
2023/04/12 11:16:19;;;;;;;65.32;62.63;;;;;;;9.51;81.76;96918.00;5019223;28;20029;-75
2023/04/12 11:18:45;;;;;;;63.08;60.47;;;;;;;9.36;82.70;96909.13;5022146;28;20059;-74
2023/04/12 11:21:11;;;;;;;67.43;64.65;;;;;;;9.27;83.54;96905.34;5041460;28;20029;-75
2023/04/12 11:23:36;;;;;;;65.45;62.65;;;;;;;9.18;83.04;96907.75;5028570;28;20630;-74
2023/04/12 11:26:02;;;;;;;75.22;72.03;;;;;;;9.41;82.75;96917.16;5009492;28;20492;-76
2023/04/12 11:28:28;;;;;;;67.93;64.95;;;;;;;9.15;83.88;96905.59;5022008;28;20435;-76
2023/04/12 11:30:56;;;;;;;68.85;65.82;;;;;;;9.04;83.97;96901.28;5041800;28;20433;-75
2023/04/12 11:33:35;;;;;;;65.80;62.80;;;;;;;8.87;83.41;96906.88;5045097;28;20087;-76